sensor_id;sensor_type;location;lat;lon;timestamp;P1;durP1;ratioP1;P2;durP2;ratioP2
64875;SDS011;51369;49.862;9.908;2022-12-18T00:01:26;69.03;;;24.20;;
64875;SDS011;51369;49.862;9.908;2022-12-18T00:03:52;66.82;;;24.83;;
64875;SDS011;51369;49.862;9.908;2022-12-18T00:06:18;62.63;;;25.05;;
64875;SDS011;51369;49.862;9.908;2022-12-18T00:08:45;56.35;;;23.50;;
64875;SDS011;51369;49.862;9.908;2022-12-18T00:11:12;57.58;;;23.75;;
64875;SDS011;51369;49.862;9.908;2022-12-18T00:13:45;51.28;;;21.92;;
64875;SDS011;51369;49.862;9.908;2022-12-18T00:16:12;103.80;;;39.75;;
64875;SDS011;51369;49.862;9.908;2022-12-18T00:18:40;96.25;;;35.50;;
64875;SDS011;51369;49.862;9.908;2022-12-18T00:21:06;70.93;;;24.73;;
64875;SDS011;51369;49.862;9.908;2022-12-18T00:23:34;64.97;;;25.58;;
64875;SDS011;51369;49.862;9.908;2022-12-18T00:26:04;63.00;;;24.10;;
64875;SDS011;51369;49.862;9.908;2022-12-18T00:28:32;69.13;;;24.80;;
64875;SDS011;51369;49.862;9.908;2022-12-18T00:31:05;61.53;;;24.27;;
64875;SDS011;51369;49.862;9.908;2022-12-18T00:33:32;70.10;;;25.15;;
64875;SDS011;51369;49.862;9.908;2022-12-18T00:36:02;48.65;;;19.23;;
64875;SDS011;51369;49.862;9.908;2022-12-18T00:38:27;39.42;;;16.30;;
64875;SDS011;51369;49.862;9.908;2022-12-18T00:40:52;34.25;;;16.38;;
64875;SDS011;51369;49.862;9.908;2022-12-18T00:43:18;44.63;;;17.35;;
64875;SDS011;51369;49.862;9.908;2022-12-18T00:45:43;47.17;;;18.92;;
64875;SDS011;51369;49.862;9.908;2022-12-18T00:48:09;42.13;;;17.42;;
64875;SDS011;51369;49.862;9.908;2022-12-18T00:50:34;47.63;;;18.63;;
64875;SDS011;51369;49.862;9.908;2022-12-18T00:53:00;47.75;;;18.98;;
64875;SDS011;51369;49.862;9.908;2022-12-18T00:55:25;45.38;;;18.33;;
64875;SDS011;51369;49.862;9.908;2022-12-18T00:57:51;47.85;;;18.70;;
64875;SDS011;51369;49.862;9.908;2022-12-18T01:00:17;45.00;;;18.35;;
64875;SDS011;51369;49.862;9.908;2022-12-18T01:02:43;43.00;;;17.20;;
64875;SDS011;51369;49.862;9.908;2022-12-18T01:05:09;47.03;;;17.92;;
64875;SDS011;51369;49.862;9.908;2022-12-18T01:07:36;41.75;;;16.63;;
64875;SDS011;51369;49.862;9.908;2022-12-18T01:10:02;38.38;;;17.75;;
64875;SDS011;51369;49.862;9.908;2022-12-18T01:12:28;37.03;;;16.73;;
64875;SDS011;51369;49.862;9.908;2022-12-18T01:14:53;31.02;;;14.05;;
64875;SDS011;51369;49.862;9.908;2022-12-18T01:17:19;41.88;;;15.63;;
64875;SDS011;51369;49.862;9.908;2022-12-18T01:19:45;39.78;;;15.35;;
64875;SDS011;51369;49.862;9.908;2022-12-18T01:22:10;35.45;;;15.30;;
64875;SDS011;51369;49.862;9.908;2022-12-18T01:24:36;37.05;;;15.15;;
64875;SDS011;51369;49.862;9.908;2022-12-18T01:27:02;34.50;;;14.63;;
64875;SDS011;51369;49.862;9.908;2022-12-18T01:29:27;39.25;;;15.73;;
64875;SDS011;51369;49.862;9.908;2022-12-18T01:31:54;45.88;;;16.35;;
64875;SDS011;51369;49.862;9.908;2022-12-18T01:34:22;40.78;;;16.73;;
64875;SDS011;51369;49.862;9.908;2022-12-18T01:36:48;38.13;;;15.73;;
64875;SDS011;51369;49.862;9.908;2022-12-18T01:39:14;47.35;;;16.48;;
64875;SDS011;51369;49.862;9.908;2022-12-18T01:41:41;36.15;;;14.18;;
64875;SDS011;51369;49.862;9.908;2022-12-18T01:50:16;36.33;;;14.88;;
64875;SDS011;51369;49.862;9.908;2022-12-18T01:53:06;44.30;;;18.40;;
64875;SDS011;51369;49.862;9.908;2022-12-18T01:55:37;43.63;;;17.80;;
64875;SDS011;51369;49.862;9.908;2022-12-18T01:58:08;52.03;;;17.30;;
64875;SDS011;51369;49.862;9.908;2022-12-18T02:00:34;45.20;;;16.55;;
64875;SDS011;51369;49.862;9.908;2022-12-18T02:02:59;49.22;;;18.75;;
64875;SDS011;51369;49.862;9.908;2022-12-18T02:08:12;44.60;;;17.30;;
64875;SDS011;51369;49.862;9.908;2022-12-18T02:10:48;48.78;;;18.42;;
64875;SDS011;51369;49.862;9.908;2022-12-18T02:18:53;45.70;;;17.52;;
64875;SDS011;51369;49.862;9.908;2022-12-18T02:21:29;39.15;;;17.40;;
64875;SDS011;51369;49.862;9.908;2022-12-18T02:24:13;45.97;;;19.23;;
64875;SDS011;51369;49.862;9.908;2022-12-18T02:27:07;41.50;;;16.05;;
64875;SDS011;51369;49.862;9.908;2022-12-18T02:29:37;43.20;;;18.52;;
64875;SDS011;51369;49.862;9.908;2022-12-18T02:32:12;42.90;;;17.80;;
64875;SDS011;51369;49.862;9.908;2022-12-18T02:34:44;42.70;;;17.55;;
64875;SDS011;51369;49.862;9.908;2022-12-18T02:37:14;47.92;;;18.10;;
64875;SDS011;51369;49.862;9.908;2022-12-18T02:39:42;44.45;;;18.73;;
64875;SDS011;51369;49.862;9.908;2022-12-18T02:42:12;42.22;;;17.25;;
64875;SDS011;51369;49.862;9.908;2022-12-18T02:44:50;49.15;;;16.95;;
64875;SDS011;51369;49.862;9.908;2022-12-18T02:47:20;44.42;;;15.50;;
64875;SDS011;51369;49.862;9.908;2022-12-18T03:00:35;50.70;;;17.98;;
64875;SDS011;51369;49.862;9.908;2022-12-18T03:03:11;39.03;;;17.05;;
64875;SDS011;51369;49.862;9.908;2022-12-18T03:05:48;44.42;;;16.42;;
64875;SDS011;51369;49.862;9.908;2022-12-18T03:08:22;33.28;;;16.20;;
64875;SDS011;51369;49.862;9.908;2022-12-18T03:11:11;45.45;;;18.58;;
64875;SDS011;51369;49.862;9.908;2022-12-18T03:16:12;47.95;;;17.40;;
64875;SDS011;51369;49.862;9.908;2022-12-18T03:18:50;50.25;;;19.15;;
64875;SDS011;51369;49.862;9.908;2022-12-18T03:21:19;44.05;;;17.33;;
64875;SDS011;51369;49.862;9.908;2022-12-18T03:23:51;44.20;;;16.75;;
64875;SDS011;51369;49.862;9.908;2022-12-18T03:26:22;41.63;;;17.45;;
64875;SDS011;51369;49.862;9.908;2022-12-18T03:28:55;42.67;;;16.85;;
64875;SDS011;51369;49.862;9.908;2022-12-18T03:31:25;43.13;;;16.75;;
64875;SDS011;51369;49.862;9.908;2022-12-18T03:33:55;54.28;;;17.63;;
64875;SDS011;51369;49.862;9.908;2022-12-18T03:36:31;40.65;;;15.13;;
64875;SDS011;51369;49.862;9.908;2022-12-18T03:38:57;40.05;;;15.68;;
64875;SDS011;51369;49.862;9.908;2022-12-18T03:41:37;34.65;;;15.25;;
64875;SDS011;51369;49.862;9.908;2022-12-18T03:44:29;39.30;;;14.63;;
64875;SDS011;51369;49.862;9.908;2022-12-18T03:52:11;33.47;;;12.98;;
64875;SDS011;51369;49.862;9.908;2022-12-18T03:54:43;41.50;;;16.73;;
64875;SDS011;51369;49.862;9.908;2022-12-18T03:57:14;44.92;;;16.83;;
64875;SDS011;51369;49.862;9.908;2022-12-18T03:59:49;50.63;;;18.05;;
64875;SDS011;51369;49.862;9.908;2022-12-18T04:02:20;42.05;;;15.05;;
64875;SDS011;51369;49.862;9.908;2022-12-18T04:04:49;37.20;;;15.93;;
64875;SDS011;51369;49.862;9.908;2022-12-18T04:07:18;42.20;;;15.05;;
64875;SDS011;51369;49.862;9.908;2022-12-18T04:09:46;41.35;;;16.70;;
64875;SDS011;51369;49.862;9.908;2022-12-18T04:12:14;52.38;;;16.50;;
64875;SDS011;51369;49.862;9.908;2022-12-18T04:14:39;50.10;;;16.30;;
64875;SDS011;51369;49.862;9.908;2022-12-18T04:17:07;47.10;;;17.38;;
64875;SDS011;51369;49.862;9.908;2022-12-18T04:19:32;40.78;;;15.95;;
64875;SDS011;51369;49.862;9.908;2022-12-18T04:22:00;37.28;;;16.23;;
64875;SDS011;51369;49.862;9.908;2022-12-18T04:24:26;41.60;;;16.02;;
64875;SDS011;51369;49.862;9.908;2022-12-18T04:27:02;42.42;;;15.05;;
64875;SDS011;51369;49.862;9.908;2022-12-18T04:29:32;46.78;;;16.83;;
64875;SDS011;51369;49.862;9.908;2022-12-18T04:31:58;47.03;;;15.32;;
64875;SDS011;51369;49.862;9.908;2022-12-18T04:34:24;35.78;;;14.98;;
64875;SDS011;51369;49.862;9.908;2022-12-18T04:36:52;40.00;;;14.90;;
64875;SDS011;51369;49.862;9.908;2022-12-18T04:39:19;41.22;;;16.02;;
64875;SDS011;51369;49.862;9.908;2022-12-18T04:41:46;38.97;;;16.10;;
64875;SDS011;51369;49.862;9.908;2022-12-18T04:44:12;37.42;;;15.43;;
64875;SDS011;51369;49.862;9.908;2022-12-18T04:46:38;47.63;;;17.15;;
64875;SDS011;51369;49.862;9.908;2022-12-18T04:49:03;45.50;;;18.42;;
64875;SDS011;51369;49.862;9.908;2022-12-18T04:51:29;46.35;;;19.35;;
64875;SDS011;51369;49.862;9.908;2022-12-18T04:53:54;50.45;;;18.23;;
64875;SDS011;51369;49.862;9.908;2022-12-18T04:56:20;44.97;;;17.38;;
64875;SDS011;51369;49.862;9.908;2022-12-18T04:58:45;46.05;;;16.20;;
64875;SDS011;51369;49.862;9.908;2022-12-18T05:01:12;43.35;;;15.95;;
64875;SDS011;51369;49.862;9.908;2022-12-18T05:03:38;45.08;;;16.23;;
64875;SDS011;51369;49.862;9.908;2022-12-18T05:06:04;40.92;;;15.88;;
64875;SDS011;51369;49.862;9.908;2022-12-18T05:08:31;48.30;;;17.85;;
64875;SDS011;51369;49.862;9.908;2022-12-18T05:11:04;39.13;;;14.80;;
64875;SDS011;51369;49.862;9.908;2022-12-18T05:13:34;46.90;;;17.33;;
64875;SDS011;51369;49.862;9.908;2022-12-18T05:16:00;49.75;;;17.52;;
64875;SDS011;51369;49.862;9.908;2022-12-18T05:18:28;44.05;;;16.23;;
64875;SDS011;51369;49.862;9.908;2022-12-18T05:20:54;37.85;;;15.15;;
64875;SDS011;51369;49.862;9.908;2022-12-18T05:23:20;46.40;;;17.27;;
64875;SDS011;51369;49.862;9.908;2022-12-18T05:25:51;50.78;;;17.35;;
64875;SDS011;51369;49.862;9.908;2022-12-18T05:28:18;45.50;;;17.02;;
64875;SDS011;51369;49.862;9.908;2022-12-18T05:30:50;50.42;;;16.60;;
64875;SDS011;51369;49.862;9.908;2022-12-18T05:33:19;40.85;;;16.15;;
64875;SDS011;51369;49.862;9.908;2022-12-18T05:35:52;46.15;;;16.40;;
64875;SDS011;51369;49.862;9.908;2022-12-18T05:38:19;39.83;;;15.52;;
64875;SDS011;51369;49.862;9.908;2022-12-18T05:40:46;48.55;;;17.70;;
64875;SDS011;51369;49.862;9.908;2022-12-18T05:43:12;47.25;;;17.70;;
64875;SDS011;51369;49.862;9.908;2022-12-18T05:45:38;48.92;;;18.10;;
64875;SDS011;51369;49.862;9.908;2022-12-18T05:48:04;38.92;;;15.43;;
64875;SDS011;51369;49.862;9.908;2022-12-18T05:50:30;38.80;;;15.40;;
64875;SDS011;51369;49.862;9.908;2022-12-18T05:53:00;44.83;;;16.80;;
64875;SDS011;51369;49.862;9.908;2022-12-18T05:55:26;43.80;;;16.20;;
64875;SDS011;51369;49.862;9.908;2022-12-18T05:57:51;47.03;;;17.40;;
64875;SDS011;51369;49.862;9.908;2022-12-18T06:00:16;45.88;;;17.10;;
64875;SDS011;51369;49.862;9.908;2022-12-18T06:02:42;43.97;;;16.38;;
64875;SDS011;51369;49.862;9.908;2022-12-18T06:05:11;50.00;;;16.95;;
64875;SDS011;51369;49.862;9.908;2022-12-18T06:07:36;35.67;;;15.80;;
64875;SDS011;51369;49.862;9.908;2022-12-18T06:10:02;43.20;;;16.17;;
64875;SDS011;51369;49.862;9.908;2022-12-18T06:12:27;41.42;;;16.38;;
64875;SDS011;51369;49.862;9.908;2022-12-18T06:14:52;41.40;;;15.88;;
64875;SDS011;51369;49.862;9.908;2022-12-18T06:17:18;39.92;;;15.88;;
64875;SDS011;51369;49.862;9.908;2022-12-18T06:19:43;54.83;;;19.20;;
64875;SDS011;51369;49.862;9.908;2022-12-18T06:22:09;54.10;;;18.70;;
64875;SDS011;51369;49.862;9.908;2022-12-18T06:24:34;53.63;;;18.05;;
64875;SDS011;51369;49.862;9.908;2022-12-18T06:26:59;53.85;;;19.60;;
64875;SDS011;51369;49.862;9.908;2022-12-18T06:29:25;50.67;;;19.85;;
64875;SDS011;51369;49.862;9.908;2022-12-18T06:31:50;52.22;;;21.10;;
64875;SDS011;51369;49.862;9.908;2022-12-18T06:34:15;50.38;;;18.15;;
64875;SDS011;51369;49.862;9.908;2022-12-18T06:36:41;48.72;;;18.25;;
64875;SDS011;51369;49.862;9.908;2022-12-18T06:39:06;43.47;;;18.35;;
64875;SDS011;51369;49.862;9.908;2022-12-18T06:41:31;48.47;;;18.55;;
64875;SDS011;51369;49.862;9.908;2022-12-18T06:43:57;52.00;;;17.85;;
64875;SDS011;51369;49.862;9.908;2022-12-18T06:46:22;40.33;;;14.32;;
64875;SDS011;51369;49.862;9.908;2022-12-18T06:48:48;47.53;;;16.35;;
64875;SDS011;51369;49.862;9.908;2022-12-18T06:51:21;52.55;;;18.98;;
64875;SDS011;51369;49.862;9.908;2022-12-18T06:53:48;62.50;;;18.75;;
64875;SDS011;51369;49.862;9.908;2022-12-18T06:56:14;49.85;;;18.85;;
64875;SDS011;51369;49.862;9.908;2022-12-18T06:58:39;63.40;;;21.63;;
64875;SDS011;51369;49.862;9.908;2022-12-18T07:01:06;51.95;;;17.92;;
64875;SDS011;51369;49.862;9.908;2022-12-18T07:03:33;59.40;;;20.50;;
64875;SDS011;51369;49.862;9.908;2022-12-18T07:05:59;55.78;;;19.48;;
64875;SDS011;51369;49.862;9.908;2022-12-18T07:08:24;56.53;;;20.15;;
64875;SDS011;51369;49.862;9.908;2022-12-18T07:10:50;56.00;;;18.17;;
64875;SDS011;51369;49.862;9.908;2022-12-18T07:13:16;60.13;;;19.83;;
64875;SDS011;51369;49.862;9.908;2022-12-18T07:15:42;55.08;;;19.52;;
64875;SDS011;51369;49.862;9.908;2022-12-18T07:18:08;61.33;;;20.45;;
64875;SDS011;51369;49.862;9.908;2022-12-18T07:20:33;51.40;;;20.30;;
64875;SDS011;51369;49.862;9.908;2022-12-18T07:22:58;52.97;;;19.92;;
64875;SDS011;51369;49.862;9.908;2022-12-18T07:25:26;55.05;;;17.98;;
64875;SDS011;51369;49.862;9.908;2022-12-18T07:27:51;52.67;;;20.13;;
64875;SDS011;51369;49.862;9.908;2022-12-18T07:30:17;56.42;;;19.27;;
64875;SDS011;51369;49.862;9.908;2022-12-18T07:32:42;56.17;;;20.58;;
64875;SDS011;51369;49.862;9.908;2022-12-18T07:35:08;53.20;;;19.00;;
64875;SDS011;51369;49.862;9.908;2022-12-18T07:37:33;63.20;;;21.52;;
64875;SDS011;51369;49.862;9.908;2022-12-18T07:39:58;53.33;;;19.00;;
64875;SDS011;51369;49.862;9.908;2022-12-18T07:42:24;59.17;;;19.08;;
64875;SDS011;51369;49.862;9.908;2022-12-18T07:45:01;49.38;;;18.60;;
64875;SDS011;51369;49.862;9.908;2022-12-18T07:47:27;60.63;;;18.15;;
64875;SDS011;51369;49.862;9.908;2022-12-18T07:49:56;53.10;;;18.95;;
64875;SDS011;51369;49.862;9.908;2022-12-18T07:52:21;58.30;;;19.30;;
64875;SDS011;51369;49.862;9.908;2022-12-18T07:54:47;48.67;;;17.00;;
64875;SDS011;51369;49.862;9.908;2022-12-18T07:57:15;56.08;;;18.67;;
64875;SDS011;51369;49.862;9.908;2022-12-18T07:59:41;56.92;;;17.42;;
64875;SDS011;51369;49.862;9.908;2022-12-18T08:02:06;53.65;;;18.73;;
64875;SDS011;51369;49.862;9.908;2022-12-18T08:04:32;68.60;;;20.60;;
64875;SDS011;51369;49.862;9.908;2022-12-18T08:06:57;62.97;;;20.27;;
64875;SDS011;51369;49.862;9.908;2022-12-18T08:09:22;67.35;;;20.65;;
64875;SDS011;51369;49.862;9.908;2022-12-18T08:11:48;50.03;;;18.63;;
64875;SDS011;51369;49.862;9.908;2022-12-18T08:14:13;61.78;;;17.55;;
64875;SDS011;51369;49.862;9.908;2022-12-18T08:16:39;77.95;;;20.60;;
64875;SDS011;51369;49.862;9.908;2022-12-18T08:19:05;71.57;;;19.92;;
64875;SDS011;51369;49.862;9.908;2022-12-18T08:21:30;69.10;;;20.02;;
64875;SDS011;51369;49.862;9.908;2022-12-18T08:23:57;64.07;;;18.92;;
64875;SDS011;51369;49.862;9.908;2022-12-18T08:26:25;65.95;;;21.45;;
64875;SDS011;51369;49.862;9.908;2022-12-18T08:28:53;67.57;;;22.05;;
64875;SDS011;51369;49.862;9.908;2022-12-18T08:31:20;68.32;;;21.52;;
64875;SDS011;51369;49.862;9.908;2022-12-18T08:33:47;63.10;;;21.25;;
64875;SDS011;51369;49.862;9.908;2022-12-18T08:36:14;64.40;;;20.55;;
64875;SDS011;51369;49.862;9.908;2022-12-18T08:38:39;62.80;;;20.25;;
64875;SDS011;51369;49.862;9.908;2022-12-18T08:41:06;73.40;;;20.35;;
64875;SDS011;51369;49.862;9.908;2022-12-18T08:43:33;55.45;;;19.92;;
64875;SDS011;51369;49.862;9.908;2022-12-18T08:46:17;68.10;;;21.63;;
64875;SDS011;51369;49.862;9.908;2022-12-18T08:48:43;76.13;;;21.70;;
64875;SDS011;51369;49.862;9.908;2022-12-18T08:51:09;75.30;;;23.80;;
64875;SDS011;51369;49.862;9.908;2022-12-18T08:53:35;71.90;;;21.13;;
64875;SDS011;51369;49.862;9.908;2022-12-18T08:56:02;73.00;;;22.20;;
64875;SDS011;51369;49.862;9.908;2022-12-18T08:58:28;58.42;;;19.25;;
64875;SDS011;51369;49.862;9.908;2022-12-18T09:00:53;76.38;;;23.17;;
64875;SDS011;51369;49.862;9.908;2022-12-18T09:03:19;66.88;;;22.17;;
64875;SDS011;51369;49.862;9.908;2022-12-18T09:05:48;75.05;;;24.38;;
64875;SDS011;51369;49.862;9.908;2022-12-18T09:08:13;70.72;;;21.63;;
64875;SDS011;51369;49.862;9.908;2022-12-18T09:10:45;65.07;;;20.20;;
64875;SDS011;51369;49.862;9.908;2022-12-18T09:13:12;74.85;;;22.48;;
64875;SDS011;51369;49.862;9.908;2022-12-18T09:15:45;68.88;;;21.05;;
64875;SDS011;51369;49.862;9.908;2022-12-18T09:18:15;70.13;;;22.00;;
64875;SDS011;51369;49.862;9.908;2022-12-18T09:20:42;73.90;;;23.25;;
64875;SDS011;51369;49.862;9.908;2022-12-18T09:23:07;77.60;;;22.75;;
64875;SDS011;51369;49.862;9.908;2022-12-18T09:25:34;72.03;;;22.20;;
64875;SDS011;51369;49.862;9.908;2022-12-18T09:28:04;67.00;;;23.98;;
64875;SDS011;51369;49.862;9.908;2022-12-18T09:30:32;70.37;;;22.03;;
64875;SDS011;51369;49.862;9.908;2022-12-18T09:32:59;76.28;;;21.63;;
64875;SDS011;51369;49.862;9.908;2022-12-18T09:35:25;73.90;;;22.00;;
64875;SDS011;51369;49.862;9.908;2022-12-18T09:37:50;62.40;;;21.52;;
64875;SDS011;51369;49.862;9.908;2022-12-18T09:40:16;75.00;;;22.35;;
64875;SDS011;51369;49.862;9.908;2022-12-18T09:42:50;73.47;;;21.10;;
64875;SDS011;51369;49.862;9.908;2022-12-18T09:45:19;70.93;;;22.38;;
64875;SDS011;51369;49.862;9.908;2022-12-18T09:47:45;69.30;;;22.95;;
64875;SDS011;51369;49.862;9.908;2022-12-18T09:52:57;63.90;;;20.33;;
64875;SDS011;51369;49.862;9.908;2022-12-18T09:55:34;63.30;;;22.00;;
64875;SDS011;51369;49.862;9.908;2022-12-18T09:58:07;63.22;;;22.08;;
64875;SDS011;51369;49.862;9.908;2022-12-18T10:00:41;55.63;;;20.38;;
64875;SDS011;51369;49.862;9.908;2022-12-18T10:03:11;63.88;;;20.98;;
64875;SDS011;51369;49.862;9.908;2022-12-18T10:11:34;55.53;;;20.60;;
64875;SDS011;51369;49.862;9.908;2022-12-18T10:21:59;55.75;;;21.48;;
64875;SDS011;51369;49.862;9.908;2022-12-18T10:24:42;52.47;;;19.25;;
64875;SDS011;51369;49.862;9.908;2022-12-18T10:27:21;53.05;;;19.85;;
64875;SDS011;51369;49.862;9.908;2022-12-18T10:29:49;65.80;;;21.00;;
64875;SDS011;51369;49.862;9.908;2022-12-18T10:32:18;67.82;;;21.77;;
64875;SDS011;51369;49.862;9.908;2022-12-18T10:37:16;65.00;;;20.70;;
64875;SDS011;51369;49.862;9.908;2022-12-18T10:39:44;65.80;;;21.15;;
64875;SDS011;51369;49.862;9.908;2022-12-18T10:42:13;53.45;;;17.95;;
64875;SDS011;51369;49.862;9.908;2022-12-18T10:44:42;48.90;;;19.50;;
64875;SDS011;51369;49.862;9.908;2022-12-18T10:47:11;64.53;;;22.67;;
64875;SDS011;51369;49.862;9.908;2022-12-18T10:49:50;71.05;;;22.00;;
64875;SDS011;51369;49.862;9.908;2022-12-18T10:52:24;67.22;;;21.48;;
64875;SDS011;51369;49.862;9.908;2022-12-18T10:55:01;57.05;;;19.40;;
64875;SDS011;51369;49.862;9.908;2022-12-18T10:57:35;56.17;;;19.33;;
64875;SDS011;51369;49.862;9.908;2022-12-18T11:05:25;64.30;;;20.15;;
64875;SDS011;51369;49.862;9.908;2022-12-18T11:07:51;55.83;;;20.30;;
64875;SDS011;51369;49.862;9.908;2022-12-18T11:10:20;54.42;;;20.65;;
64875;SDS011;51369;49.862;9.908;2022-12-18T11:12:48;62.35;;;19.77;;
64875;SDS011;51369;49.862;9.908;2022-12-18T11:15:19;63.00;;;20.08;;
64875;SDS011;51369;49.862;9.908;2022-12-18T11:17:48;54.53;;;17.75;;
64875;SDS011;51369;49.862;9.908;2022-12-18T11:20:23;55.85;;;19.02;;
64875;SDS011;51369;49.862;9.908;2022-12-18T11:23:02;59.10;;;20.17;;
64875;SDS011;51369;49.862;9.908;2022-12-18T11:25:31;57.40;;;19.00;;
64875;SDS011;51369;49.862;9.908;2022-12-18T11:27:59;61.17;;;21.33;;
64875;SDS011;51369;49.862;9.908;2022-12-18T11:30:33;56.75;;;19.55;;
64875;SDS011;51369;49.862;9.908;2022-12-18T11:33:10;59.17;;;19.70;;
64875;SDS011;51369;49.862;9.908;2022-12-18T11:38:31;59.60;;;21.33;;
64875;SDS011;51369;49.862;9.908;2022-12-18T11:41:05;61.63;;;20.48;;
64875;SDS011;51369;49.862;9.908;2022-12-18T11:43:43;64.20;;;20.45;;
64875;SDS011;51369;49.862;9.908;2022-12-18T11:46:18;58.90;;;19.60;;
64875;SDS011;51369;49.862;9.908;2022-12-18T11:49:01;51.38;;;19.88;;
64875;SDS011;51369;49.862;9.908;2022-12-18T11:51:48;50.03;;;17.85;;
64875;SDS011;51369;49.862;9.908;2022-12-18T11:54:19;52.67;;;18.73;;
64875;SDS011;51369;49.862;9.908;2022-12-18T12:00:09;51.65;;;18.48;;
64875;SDS011;51369;49.862;9.908;2022-12-18T12:13:15;58.65;;;19.48;;
64875;SDS011;51369;49.862;9.908;2022-12-18T12:15:47;57.70;;;20.45;;
64875;SDS011;51369;49.862;9.908;2022-12-18T12:24:03;57.67;;;18.52;;
64875;SDS011;51369;49.862;9.908;2022-12-18T12:26:48;50.50;;;17.55;;
64875;SDS011;51369;49.862;9.908;2022-12-18T12:29:28;51.88;;;18.65;;
64875;SDS011;51369;49.862;9.908;2022-12-18T12:35:27;46.42;;;18.35;;
64875;SDS011;51369;49.862;9.908;2022-12-18T12:40:45;51.83;;;17.17;;
64875;SDS011;51369;49.862;9.908;2022-12-18T12:46:03;52.25;;;18.42;;
64875;SDS011;51369;49.862;9.908;2022-12-18T12:48:32;49.85;;;18.38;;
64875;SDS011;51369;49.862;9.908;2022-12-18T12:53:42;49.10;;;17.52;;
64875;SDS011;51369;49.862;9.908;2022-12-18T12:56:10;44.15;;;16.80;;
64875;SDS011;51369;49.862;9.908;2022-12-18T13:04:03;56.47;;;17.92;;
64875;SDS011;51369;49.862;9.908;2022-12-18T13:06:42;35.78;;;13.13;;
64875;SDS011;51369;49.862;9.908;2022-12-18T13:09:13;43.95;;;17.83;;
64875;SDS011;51369;49.862;9.908;2022-12-18T13:11:39;42.53;;;16.70;;
64875;SDS011;51369;49.862;9.908;2022-12-18T13:17:22;47.97;;;17.38;;
64875;SDS011;51369;49.862;9.908;2022-12-18T13:20:05;45.85;;;15.88;;
64875;SDS011;51369;49.862;9.908;2022-12-18T13:22:35;44.05;;;16.52;;
64875;SDS011;51369;49.862;9.908;2022-12-18T13:25:03;43.40;;;16.15;;
64875;SDS011;51369;49.862;9.908;2022-12-18T13:27:55;46.97;;;17.33;;
64875;SDS011;51369;49.862;9.908;2022-12-18T13:33:34;45.75;;;16.10;;
64875;SDS011;51369;49.862;9.908;2022-12-18T13:36:08;39.65;;;15.30;;
64875;SDS011;51369;49.862;9.908;2022-12-18T13:38:35;45.03;;;16.98;;
64875;SDS011;51369;49.862;9.908;2022-12-18T13:41:04;36.83;;;15.60;;
64875;SDS011;51369;49.862;9.908;2022-12-18T13:43:54;45.30;;;16.80;;
64875;SDS011;51369;49.862;9.908;2022-12-18T13:46:27;44.08;;;16.77;;
64875;SDS011;51369;49.862;9.908;2022-12-18T13:49:02;41.78;;;15.88;;
64875;SDS011;51369;49.862;9.908;2022-12-18T13:51:42;48.03;;;17.73;;
64875;SDS011;51369;49.862;9.908;2022-12-18T13:54:19;42.17;;;16.30;;
64875;SDS011;51369;49.862;9.908;2022-12-18T13:56:46;47.03;;;16.50;;
64875;SDS011;51369;49.862;9.908;2022-12-18T14:01:59;49.35;;;16.67;;
64875;SDS011;51369;49.862;9.908;2022-12-18T14:04:32;46.07;;;16.73;;
64875;SDS011;51369;49.862;9.908;2022-12-18T14:07:15;46.90;;;16.92;;
64875;SDS011;51369;49.862;9.908;2022-12-18T14:09:45;41.45;;;16.13;;
64875;SDS011;51369;49.862;9.908;2022-12-18T14:12:14;41.33;;;15.90;;
64875;SDS011;51369;49.862;9.908;2022-12-18T14:15:00;42.35;;;15.75;;
64875;SDS011;51369;49.862;9.908;2022-12-18T14:17:26;41.38;;;15.70;;
64875;SDS011;51369;49.862;9.908;2022-12-18T14:19:51;41.78;;;15.75;;
64875;SDS011;51369;49.862;9.908;2022-12-18T14:22:18;38.20;;;14.70;;
64875;SDS011;51369;49.862;9.908;2022-12-18T14:24:46;46.60;;;16.63;;
64875;SDS011;51369;49.862;9.908;2022-12-18T14:27:29;45.00;;;16.75;;
64875;SDS011;51369;49.862;9.908;2022-12-18T14:29:54;52.28;;;18.25;;
64875;SDS011;51369;49.862;9.908;2022-12-18T14:32:20;46.65;;;16.75;;
64875;SDS011;51369;49.862;9.908;2022-12-18T14:34:50;41.15;;;15.77;;
64875;SDS011;51369;49.862;9.908;2022-12-18T14:37:20;49.63;;;17.70;;
64875;SDS011;51369;49.862;9.908;2022-12-18T14:39:59;44.70;;;16.90;;
64875;SDS011;51369;49.862;9.908;2022-12-18T14:42:36;44.22;;;16.92;;
64875;SDS011;51369;49.862;9.908;2022-12-18T14:47:58;41.63;;;16.23;;
64875;SDS011;51369;49.862;9.908;2022-12-18T14:50:24;38.42;;;16.10;;
64875;SDS011;51369;49.862;9.908;2022-12-18T14:52:50;46.55;;;17.70;;
64875;SDS011;51369;49.862;9.908;2022-12-18T14:55:16;46.28;;;17.10;;
64875;SDS011;51369;49.862;9.908;2022-12-18T14:57:43;53.15;;;17.27;;
64875;SDS011;51369;49.862;9.908;2022-12-18T15:00:17;43.13;;;15.93;;
64875;SDS011;51369;49.862;9.908;2022-12-18T15:02:45;44.20;;;17.05;;
64875;SDS011;51369;49.862;9.908;2022-12-18T15:07:42;45.55;;;17.27;;
64875;SDS011;51369;49.862;9.908;2022-12-18T15:10:13;49.88;;;17.65;;
64875;SDS011;51369;49.862;9.908;2022-12-18T15:18:20;44.63;;;16.80;;
64875;SDS011;51369;49.862;9.908;2022-12-18T15:20:47;42.47;;;15.50;;
64875;SDS011;51369;49.862;9.908;2022-12-18T15:25:40;44.33;;;17.25;;
64875;SDS011;51369;49.862;9.908;2022-12-18T15:31:00;45.65;;;17.10;;
64875;SDS011;51369;49.862;9.908;2022-12-18T15:33:30;43.22;;;17.10;;
64875;SDS011;51369;49.862;9.908;2022-12-18T15:36:02;50.33;;;17.60;;
64875;SDS011;51369;49.862;9.908;2022-12-18T15:38:29;43.47;;;17.73;;
64875;SDS011;51369;49.862;9.908;2022-12-18T15:40:55;47.33;;;17.63;;
64875;SDS011;51369;49.862;9.908;2022-12-18T15:43:22;42.20;;;16.58;;
64875;SDS011;51369;49.862;9.908;2022-12-18T15:46:02;43.45;;;16.95;;
64875;SDS011;51369;49.862;9.908;2022-12-18T15:48:40;50.80;;;17.55;;
64875;SDS011;51369;49.862;9.908;2022-12-18T15:51:17;44.38;;;16.80;;
64875;SDS011;51369;49.862;9.908;2022-12-18T15:53:45;45.10;;;16.75;;
64875;SDS011;51369;49.862;9.908;2022-12-18T15:56:12;43.42;;;16.60;;
64875;SDS011;51369;49.862;9.908;2022-12-18T15:58:58;52.63;;;17.92;;
64875;SDS011;51369;49.862;9.908;2022-12-18T16:01:24;50.08;;;18.15;;
64875;SDS011;51369;49.862;9.908;2022-12-18T16:03:52;48.00;;;17.60;;
64875;SDS011;51369;49.862;9.908;2022-12-18T16:06:19;47.83;;;18.35;;
64875;SDS011;51369;49.862;9.908;2022-12-18T16:08:44;44.95;;;17.27;;
64875;SDS011;51369;49.862;9.908;2022-12-18T16:11:20;44.92;;;17.60;;
64875;SDS011;51369;49.862;9.908;2022-12-18T16:16:28;39.25;;;15.27;;
64875;SDS011;51369;49.862;9.908;2022-12-18T16:18:53;44.95;;;16.48;;
64875;SDS011;51369;49.862;9.908;2022-12-18T16:21:19;46.78;;;17.70;;
64875;SDS011;51369;49.862;9.908;2022-12-18T16:23:44;41.63;;;15.18;;
64875;SDS011;51369;49.862;9.908;2022-12-18T16:26:09;46.00;;;16.38;;
64875;SDS011;51369;49.862;9.908;2022-12-18T16:28:35;46.40;;;18.00;;
64875;SDS011;51369;49.862;9.908;2022-12-18T16:31:00;44.88;;;17.83;;
64875;SDS011;51369;49.862;9.908;2022-12-18T16:33:26;45.85;;;17.08;;
64875;SDS011;51369;49.862;9.908;2022-12-18T16:35:51;42.42;;;17.35;;
64875;SDS011;51369;49.862;9.908;2022-12-18T16:38:17;49.80;;;17.77;;